Time;durP1;ratioP1;P1;durP2;ratioP2;P2;SDS_P1;SDS_P2;PMS_P1;PMS_P2;Temp;Humidity;BMP_temperature;BMP_pressure;BME280_temperature;BME280_humidity;BME280_pressure;Samples;Min_cycle;Max_cycle;Signal;HPM_P1;HPM_P2
2022/05/22 00:02:14;;;;;;;6.90;6.60;;;;;;;17.72;66.37;100213.59;5033224;28;20029;-62
2022/05/22 00:04:39;;;;;;;6.68;6.38;;;;;;;17.72;66.27;100221.66;5037575;28;20033;-62
2022/05/22 00:07:06;;;;;;;7.00;6.70;;;;;;;17.74;66.71;100208.81;5031105;28;20666;-62
2022/05/22 00:09:33;;;;;;;7.00;6.70;;;;;;;17.68;68.12;100210.50;5021079;28;20029;-61
2022/05/22 00:11:58;;;;;;;6.53;6.22;;;;;;;17.44;69.59;100205.31;5033252;28;20435;-63
2022/05/22 00:14:25;;;;;;;7.13;6.82;;;;;;;17.60;69.37;100210.03;5032263;28;20037;-61
2022/05/22 00:16:51;;;;;;;7.07;6.78;;;;;;;17.61;68.96;100198.25;5032382;28;20021;-62
2022/05/22 00:19:23;;;;;;;6.47;6.18;;;;;;;17.62;68.88;100192.66;5032082;28;20022;-62
2022/05/22 00:21:49;;;;;;;6.60;6.30;;;;;;;17.49;68.79;100189.38;5032721;28;20390;-62
2022/05/22 00:24:18;;;;;;;6.40;6.10;;;;;;;17.50;69.06;100181.09;5032625;28;20029;-62
2022/05/22 00:26:43;;;;;;;6.50;6.20;;;;;;;17.42;69.33;100188.66;5032401;28;20034;-62
2022/05/22 00:29:09;;;;;;;6.65;6.35;;;;;;;17.42;69.37;100194.00;5032574;28;20041;-63
2022/05/22 00:31:35;;;;;;;6.50;6.20;;;;;;;17.25;70.45;100194.63;5034764;28;20392;-62
2022/05/22 00:34:01;;;;;;;6.57;6.28;;;;;;;17.25;70.93;100189.25;5036497;28;20025;-62
2022/05/22 00:36:27;;;;;;;6.60;6.30;;;;;;;17.21;70.95;100177.38;5032125;28;20037;-62
2022/05/22 00:38:52;;;;;;;6.70;6.40;;;;;;;17.18;71.71;100182.34;5032099;28;20022;-62
2022/05/22 00:41:18;;;;;;;6.78;6.47;;;;;;;17.20;71.44;100181.09;5031188;28;20083;-62
2022/05/22 00:43:52;;;;;;;7.10;6.80;;;;;;;16.96;73.08;100166.75;5031804;28;20104;-63
2022/05/22 00:46:20;;;;;;;6.70;6.40;;;;;;;17.03;74.04;100164.78;5037384;28;20017;-62
2022/05/22 00:49:00;;;;;;;7.03;6.72;;;;;;;17.13;73.78;100170.44;5031761;28;20033;-62
2022/05/22 00:51:29;;;;;;;6.50;6.20;;;;;;;17.09;74.68;100177.28;5031907;28;20052;-63
2022/05/22 00:53:58;;;;;;;6.53;6.22;;;;;;;17.08;74.52;100178.34;5031969;28;20033;-62
2022/05/22 00:56:34;;;;;;;6.68;6.38;;;;;;;17.05;72.88;100173.44;5030051;28;20070;-62
2022/05/22 00:59:05;;;;;;;6.50;6.20;;;;;;;17.01;72.55;100171.44;5031968;28;20028;-61
2022/05/22 01:01:31;;;;;;;6.55;6.25;;;;;;;16.98;71.99;100178.06;5034697;28;20094;-62
2022/05/22 01:03:57;;;;;;;6.68;6.38;;;;;;;16.87;72.15;100180.66;5031948;28;20072;-62
2022/05/22 01:06:25;;;;;;;6.40;6.10;;;;;;;16.89;72.05;100165.19;5031716;28;20484;-62
2022/05/22 01:08:52;;;;;;;6.53;6.22;;;;;;;16.92;72.23;100175.47;5031921;28;20033;-61
2022/05/22 01:11:27;;;;;;;6.55;6.25;;;;;;;16.83;72.85;100177.63;5031934;28;20025;-61
2022/05/22 01:14:01;;;;;;;6.75;6.45;;;;;;;16.72;73.60;100175.69;5020150;28;20021;-62
2022/05/22 01:16:27;;;;;;;6.68;6.38;;;;;;;16.64;74.19;100163.38;5031801;28;20426;-62
2022/05/22 01:18:55;;;;;;;6.78;6.47;;;;;;;16.71;74.54;100164.16;5031577;28;20078;-61
2022/05/22 01:21:31;;;;;;;6.50;6.20;;;;;;;16.68;75.03;100161.91;5032166;28;20104;-62
2022/05/22 01:23:57;;;;;;;6.60;6.30;;;;;;;16.66;75.78;100169.34;5031851;28;20044;-61
2022/05/22 01:26:26;;;;;;;6.40;6.10;;;;;;;16.67;76.07;100154.06;5031704;28;20025;-61
2022/05/22 01:28:52;;;;;;;6.55;6.25;;;;;;;16.57;77.31;100151.94;5031509;28;20022;-61
2022/05/22 01:31:18;;;;;;;6.45;6.15;;;;;;;16.48;77.80;100161.31;5031664;28;20028;-61
2022/05/22 01:33:43;;;;;;;6.45;6.15;;;;;;;16.49;77.24;100152.22;5031619;28;20104;-62
2022/05/22 01:36:09;;;;;;;6.47;6.18;;;;;;;16.43;77.32;100158.47;5031433;28;20117;-62
2022/05/22 01:38:36;;;;;;;6.53;6.22;;;;;;;16.40;77.17;100158.91;5031582;28;20029;-61
2022/05/22 01:41:03;;;;;;;6.53;6.22;;;;;;;16.46;76.51;100158.03;5031368;28;20422;-62
2022/05/22 01:43:29;;;;;;;6.53;6.22;;;;;;;16.49;75.96;100160.25;5031288;28;20037;-62
2022/05/22 01:45:55;;;;;;;6.60;6.30;;;;;;;16.46;76.48;100164.22;5031533;28;20370;-62
2022/05/22 01:48:24;;;;;;;6.47;6.18;;;;;;;16.38;77.52;100156.47;5031340;28;20032;-62
2022/05/22 01:50:50;;;;;;;6.40;6.10;;;;;;;16.40;77.51;100164.28;5031538;28;20017;-62
2022/05/22 01:53:18;;;;;;;6.20;6.00;;;;;;;16.35;77.44;100156.09;5033163;28;20048;-62
2022/05/22 01:55:44;;;;;;;6.57;6.28;;;;;;;16.34;76.39;100160.63;5035069;28;20029;-62
2022/05/22 01:58:10;;;;;;;6.50;6.20;;;;;;;16.34;75.82;100159.81;5035355;28;20469;-61
2022/05/22 02:00:37;;;;;;;6.43;6.13;;;;;;;16.28;75.75;100156.13;5035273;28;20025;-61
2022/05/22 02:03:04;;;;;;;6.20;6.00;;;;;;;16.42;74.82;100154.97;5035402;28;20572;-62
2022/05/22 02:05:31;;;;;;;6.13;5.93;;;;;;;16.43;73.48;100153.94;5035049;28;20033;-62
2022/05/22 02:10:40;;;;;;;6.60;6.30;;;;;;;16.44;72.39;100149.38;5044147;28;20032;-61
2022/05/22 02:13:07;;;;;;;6.38;6.10;;;;;;;16.55;71.62;100140.63;5037594;28;20033;-62
2022/05/22 02:15:33;;;;;;;6.70;6.40;;;;;;;16.56;70.78;100143.06;5035096;28;20457;-62
2022/05/22 02:17:59;;;;;;;6.03;5.82;;;;;;;16.52;70.64;100125.00;5034949;28;20021;-62
2022/05/22 02:20:25;;;;;;;6.22;5.97;;;;;;;16.45;69.05;100127.78;5034776;28;20040;-61
2022/05/22 02:22:53;;;;;;;6.50;6.20;;;;;;;16.48;68.51;100142.56;5034702;28;20021;-62
2022/05/22 02:25:22;;;;;;;6.00;5.80;;;;;;;16.46;67.92;100141.97;5034477;28;20108;-62
2022/05/22 02:27:48;;;;;;;6.30;6.00;;;;;;;16.45;67.62;100133.13;5034985;28;20067;-61
2022/05/22 02:30:17;;;;;;;6.50;6.20;;;;;;;16.47;68.03;100131.03;5034475;28;20025;-61
2022/05/22 02:32:43;;;;;;;6.40;6.10;;;;;;;16.47;67.90;100133.72;5034922;28;20091;-62
2022/05/22 02:35:11;;;;;;;6.10;5.90;;;;;;;16.46;68.39;100129.41;5016911;28;20492;-62
2022/05/22 02:37:44;;;;;;;6.40;6.10;;;;;;;16.54;67.85;100125.59;5034534;28;20404;-62
2022/05/22 02:40:10;;;;;;;6.55;6.25;;;;;;;16.50;67.75;100121.72;5033893;28;20515;-62
2022/05/22 02:42:40;;;;;;;6.10;5.90;;;;;;;16.45;68.40;100127.78;5034548;28;20444;-62
2022/05/22 02:45:08;;;;;;;6.20;6.00;;;;;;;16.52;67.81;100125.81;5034071;28;20069;-62
2022/05/22 02:47:34;;;;;;;6.47;6.18;;;;;;;16.50;67.59;100124.41;5026913;28;20493;-62
2022/05/22 02:50:00;;;;;;;6.50;6.20;;;;;;;16.55;68.13;100124.56;5027318;28;20041;-62
2022/05/22 02:52:25;;;;;;;6.10;5.90;;;;;;;16.54;68.46;100123.75;5022169;28;20120;-62
2022/05/22 02:54:51;;;;;;;6.15;5.93;;;;;;;16.58;68.13;100127.59;5034094;28;20500;-62
2022/05/22 02:57:21;;;;;;;6.30;6.00;;;;;;;16.47;68.32;100128.34;5034512;28;20022;-61
2022/05/22 02:59:47;;;;;;;6.20;6.00;;;;;;;16.49;67.81;100126.28;5034133;28;20021;-61
2022/05/22 03:02:13;;;;;;;6.03;5.82;;;;;;;16.62;66.56;100133.34;5034091;28;20120;-62
2022/05/22 03:04:38;;;;;;;6.30;6.00;;;;;;;16.53;67.08;100140.03;5032882;28;20975;-62
2022/05/22 03:07:04;;;;;;;6.00;5.80;;;;;;;16.48;68.19;100132.66;5033988;28;20029;-62
2022/05/22 03:09:30;;;;;;;6.50;6.20;;;;;;;16.45;68.86;100130.44;5033871;28;20068;-62
2022/05/22 03:11:57;;;;;;;6.28;6.00;;;;;;;16.57;68.55;100125.16;5025015;28;20029;-62
2022/05/22 03:14:23;;;;;;;6.22;6.00;;;;;;;16.53;69.12;100129.34;5033828;28;20029;-62
2022/05/22 03:16:49;;;;;;;6.25;6.00;;;;;;;16.65;68.21;100124.84;5033994;28;20377;-62
2022/05/22 03:19:15;;;;;;;6.22;6.00;;;;;;;16.69;68.13;100126.06;5033865;28;20105;-61
2022/05/22 03:21:45;;;;;;;6.45;6.15;;;;;;;16.85;67.74;100119.28;5035784;28;20021;-62
2022/05/22 03:24:10;;;;;;;5.90;5.70;;;;;;;17.67;64.65;100124.91;5033757;28;20149;-62
2022/05/22 03:26:35;;;;;;;6.50;6.20;;;;;;;19.94;57.00;100123.59;5034035;28;20033;-62
2022/05/22 03:29:01;;;;;;;5.95;5.75;;;;;;;18.63;59.88;100123.63;5033962;28;20029;-62
2022/05/22 03:31:27;;;;;;;6.20;6.00;;;;;;;17.97;61.14;100121.34;5033393;28;20052;-62
2022/05/22 03:33:52;;;;;;;6.40;6.10;;;;;;;17.64;61.37;100115.47;5033389;28;20022;-62
2022/05/22 03:36:18;;;;;;;6.15;5.95;;;;;;;17.69;61.48;100125.47;5032990;28;20041;-62
2022/05/22 03:38:43;;;;;;;6.60;6.30;;;;;;;17.57;62.06;100113.94;5020412;28;20025;-62
2022/05/22 03:41:09;;;;;;;6.40;6.10;;;;;;;17.38;63.01;100126.59;5026998;28;20026;-61
2022/05/22 03:43:34;;;;;;;6.78;6.47;;;;;;;17.27;63.45;100117.47;5026817;28;20029;-63
2022/05/22 03:45:59;;;;;;;6.30;6.00;;;;;;;17.34;63.00;100110.16;5033402;28;20473;-62
2022/05/22 03:48:25;;;;;;;6.40;6.10;;;;;;;18.33;59.02;100109.56;5029915;28;20018;-61
2022/05/22 03:50:50;;;;;;;6.50;6.20;;;;;;;17.64;62.54;100101.25;5025589;28;20032;-62
2022/05/22 03:53:16;;;;;;;6.47;6.18;;;;;;;17.92;62.14;100106.78;5032634;28;20017;-62
2022/05/22 03:55:44;;;;;;;6.70;6.40;;;;;;;18.06;61.95;100109.22;5033258;28;20111;-62
2022/05/22 03:58:10;;;;;;;6.45;6.15;;;;;;;17.92;63.37;100098.72;5033234;28;20432;-62
2022/05/22 04:00:36;;;;;;;6.50;6.20;;;;;;;18.04;62.84;100111.31;5033009;28;20046;-62
2022/05/22 04:03:02;;;;;;;6.90;6.60;;;;;;;18.09;63.15;100103.41;5033074;28;20071;-61
2022/05/22 04:05:27;;;;;;;6.07;5.88;;;;;;;18.08;63.65;100099.91;5029187;28;20030;-62
2022/05/22 04:07:53;;;;;;;6.40;6.10;;;;;;;18.18;63.71;100115.41;5023758;28;20036;-62
2022/05/22 04:10:19;;;;;;;6.65;6.35;;;;;;;18.60;63.07;100125.97;5032876;28;20037;-62
2022/05/22 04:12:45;;;;;;;6.30;6.05;;;;;;;18.59;63.70;100114.41;5032743;28;20021;-62
2022/05/22 04:15:16;;;;;;;6.15;5.95;;;;;;;18.33;63.66;100104.19;5031333;28;20021;-62
2022/05/22 04:17:41;;;;;;;6.45;6.15;;;;;;;18.45;62.22;100102.31;5032723;28;20056;-62
2022/05/22 04:20:07;;;;;;;6.40;6.10;;;;;;;18.58;61.41;100117.31;5032511;28;20017;-62
2022/05/22 04:22:33;;;;;;;6.38;6.07;;;;;;;18.55;60.70;100109.75;5047720;28;20025;-62
2022/05/22 04:25:15;;;;;;;6.20;6.00;;;;;;;18.43;60.67;100107.88;5032509;28;20022;-62
2022/05/22 04:27:42;;;;;;;6.43;6.13;;;;;;;18.54;59.73;100111.63;5032556;28;20380;-62
2022/05/22 04:30:17;;;;;;;6.38;6.07;;;;;;;18.58;60.20;100102.03;5032500;28;20060;-62
2022/05/22 04:32:44;;;;;;;6.57;6.28;;;;;;;18.58;60.71;100103.88;5031978;28;20112;-62
2022/05/22 04:35:09;;;;;;;6.70;6.40;;;;;;;24.05;45.23;100113.31;5032389;28;20029;-62
2022/05/22 04:37:34;;;;;;;6.70;6.40;;;;;;;24.53;43.20;100111.03;5029638;28;20091;-62
2022/05/22 04:40:00;;;;;;;6.13;5.93;;;;;;;21.14;51.45;100118.44;5020345;28;20057;-63
2022/05/22 04:42:25;;;;;;;6.60;6.30;;;;;;;20.18;55.48;100110.75;5027824;28;20112;-63
2022/05/22 04:44:51;;;;;;;6.57;6.28;;;;;;;19.51;58.00;100110.78;5032053;28;20051;-64
2022/05/22 04:47:17;;;;;;;6.82;6.53;;;;;;;19.42;58.46;100106.84;5032127;28;20473;-62
2022/05/22 04:49:42;;;;;;;6.68;6.38;;;;;;;19.66;57.36;100102.16;5031649;28;20033;-62
2022/05/22 04:52:08;;;;;;;6.63;6.32;;;;;;;19.99;56.61;100102.16;5032032;28;20022;-61
2022/05/22 04:54:33;;;;;;;6.60;6.30;;;;;;;20.31;54.63;100099.63;5031711;28;20017;-62
2022/05/22 04:56:59;;;;;;;6.72;6.43;;;;;;;20.15;55.16;100109.38;5032147;28;20120;-62
2022/05/22 04:59:24;;;;;;;6.70;6.40;;;;;;;20.87;54.76;100105.75;5031977;28;20027;-63
2022/05/22 05:01:50;;;;;;;6.90;6.60;;;;;;;21.85;50.40;100104.78;5031838;28;20022;-62
2022/05/22 05:04:15;;;;;;;6.70;6.40;;;;;;;21.13;52.81;100106.00;5031777;28;20021;-63
2022/05/22 05:06:41;;;;;;;6.80;6.50;;;;;;;21.13;52.73;100103.31;5031827;28;20021;-63
2022/05/22 05:09:06;;;;;;;6.70;6.40;;;;;;;22.06;48.83;100103.84;5031852;28;20029;-63
2022/05/22 05:11:32;;;;;;;6.65;6.35;;;;;;;22.94;47.02;100105.94;5031843;28;20052;-62
2022/05/22 05:13:57;;;;;;;6.70;6.40;;;;;;;21.46;50.19;100111.22;5033660;28;20499;-62
2022/05/22 05:16:23;;;;;;;7.03;6.72;;;;;;;24.17;45.13;100110.31;5027996;28;20021;-64
2022/05/22 05:18:48;;;;;;;6.88;6.57;;;;;;;26.17;39.07;100108.81;5018475;28;20032;-62
2022/05/22 05:21:17;;;;;;;6.82;6.53;;;;;;;24.82;41.58;100116.59;5027694;28;20029;-62
2022/05/22 05:23:43;;;;;;;6.80;6.50;;;;;;;23.48;45.26;100108.16;5031776;28;20113;-63
2022/05/22 05:26:09;;;;;;;6.70;6.40;;;;;;;23.31;46.09;100125.47;5031880;28;20576;-62
2022/05/22 05:28:34;;;;;;;6.78;6.47;;;;;;;22.99;46.57;100124.84;5033690;28;20481;-63
2022/05/22 05:31:00;;;;;;;6.95;6.65;;;;;;;24.35;43.42;100109.75;5035548;28;20101;-62
2022/05/22 05:33:26;;;;;;;6.93;6.63;;;;;;;23.29;44.96;100113.31;5035334;28;20108;-61
2022/05/22 05:35:52;;;;;;;6.95;6.65;;;;;;;24.04;42.56;100108.16;5035184;28;20038;-62
2022/05/22 05:38:17;;;;;;;6.72;6.43;;;;;;;25.07;40.15;100099.41;5035576;28;20032;-62
2022/05/22 05:40:44;;;;;;;7.00;6.70;;;;;;;26.77;36.00;100101.06;5035606;28;20049;-63
2022/05/22 05:43:10;;;;;;;6.88;6.57;;;;;;;25.70;37.48;100101.34;5035640;28;20116;-62
2022/05/22 05:45:35;;;;;;;6.50;6.20;;;;;;;24.97;37.68;100105.69;5035416;28;20124;-63
2022/05/22 05:48:02;;;;;;;6.65;6.35;;;;;;;24.63;36.85;100102.84;5023540;28;20393;-62
2022/05/22 05:50:27;;;;;;;6.57;6.28;;;;;;;24.21;37.79;100092.41;5033282;28;20083;-62
2022/05/22 05:52:56;;;;;;;6.90;6.60;;;;;;;27.76;32.28;100097.41;5035399;28;20362;-62
2022/05/22 05:55:22;;;;;;;7.10;6.80;;;;;;;30.40;28.84;100103.47;5034966;28;20021;-63
2022/05/22 05:57:47;;;;;;;7.00;6.70;;;;;;;28.34;30.83;100110.53;5035191;28;20144;-63
2022/05/22 06:00:17;;;;;;;6.80;6.50;;;;;;;27.87;29.06;100108.97;5035289;28;20021;-62
2022/05/22 06:02:43;;;;;;;7.00;6.70;;;;;;;29.63;26.56;100112.91;5035246;28;20022;-63
2022/05/22 06:05:10;;;;;;;7.13;6.82;;;;;;;29.95;25.38;100109.88;5035039;28;20070;-63
2022/05/22 06:07:35;;;;;;;7.20;6.90;;;;;;;28.45;27.20;100105.69;5035039;28;20025;-64
2022/05/22 06:10:01;;;;;;;7.30;7.00;;;;;;;30.95;24.60;100098.31;5035034;28;20022;-63
2022/05/22 06:12:27;;;;;;;7.25;6.95;;;;;;;31.71;23.58;100106.03;5034773;28;20032;-63
2022/05/22 06:14:52;;;;;;;7.10;6.80;;;;;;;29.90;25.49;100101.03;5034864;28;20021;-63
2022/05/22 06:17:18;;;;;;;7.10;6.80;;;;;;;31.09;23.43;100087.22;5031174;28;20026;-62
2022/05/22 06:19:55;;;;;;;7.22;6.93;;;;;;;32.08;22.84;100099.00;5025000;28;20029;-63
2022/05/22 06:22:26;;;;;;;6.97;6.68;;;;;;;27.75;26.73;100095.78;5034679;28;20422;-64
2022/05/22 06:24:53;;;;;;;6.72;6.43;;;;;;;28.74;24.08;100087.06;5035009;28;20029;-63
2022/05/22 06:27:18;;;;;;;6.80;6.50;;;;;;;26.24;26.65;100086.72;5034575;28;20547;-63
2022/05/22 06:29:44;;;;;;;6.88;6.57;;;;;;;28.42;24.22;100081.75;5035021;28;20033;-63
2022/05/22 06:32:15;;;;;;;6.88;6.57;;;;;;;28.87;24.37;100083.50;5028933;28;20421;-63
2022/05/22 06:34:41;;;;;;;6.70;6.40;;;;;;;26.79;26.48;100073.53;5034568;28;20117;-62
2022/05/22 06:37:11;;;;;;;7.15;6.85;;;;;;;29.87;23.80;100096.97;5034479;28;20028;-63
2022/05/22 06:39:52;;;;;;;7.00;6.70;;;;;;;29.92;24.06;100091.38;5034714;28;20108;-62
2022/05/22 06:42:30;;;;;;;7.25;6.95;;;;;;;27.14;26.49;100078.50;5016346;28;20037;-62
2022/05/22 06:44:59;;;;;;;7.03;6.72;;;;;;;29.66;23.95;100084.94;5023774;28;20041;-63
2022/05/22 06:47:27;;;;;;;6.80;6.50;;;;;;;28.54;25.33;100080.13;5031904;28;20428;-63
2022/05/22 06:49:55;;;;;;;6.95;6.65;;;;;;;28.20;26.17;100076.97;5023795;28;20045;-62
2022/05/22 06:52:21;;;;;;;6.88;6.57;;;;;;;27.80;26.62;100072.00;5034319;28;20021;-62
2022/05/22 06:54:46;;;;;;;7.03;6.72;;;;;;;28.93;24.92;100076.00;5033975;28;20029;-62
2022/05/22 06:57:17;;;;;;;7.13;6.82;;;;;;;29.21;24.26;100063.06;5033835;28;20039;-62
2022/05/22 06:59:45;;;;;;;7.00;6.70;;;;;;;29.01;23.90;100058.94;5034209;28;20049;-62
2022/05/22 07:02:11;;;;;;;7.10;6.80;;;;;;;30.06;23.10;100057.66;5033908;28;20337;-61
2022/05/22 07:04:36;;;;;;;6.97;6.68;;;;;;;29.12;23.62;100054.81;5034224;28;20034;-61
2022/05/22 07:07:02;;;;;;;6.97;6.68;;;;;;;28.54;24.74;100050.09;5030553;28;20073;-62
2022/05/22 07:09:27;;;;;;;7.00;6.70;;;;;;;29.23;23.33;100049.09;5025737;28;20025;-63
2022/05/22 07:11:54;;;;;;;7.38;7.07;;;;;;;30.04;22.92;100057.13;5033426;28;20021;-62
2022/05/22 07:14:20;;;;;;;7.00;6.70;;;;;;;30.81;21.71;100048.38;5033741;28;20036;-62
2022/05/22 07:16:46;;;;;;;7.20;6.90;;;;;;;30.12;22.54;100043.53;5033766;28;20045;-63
2022/05/22 07:19:12;;;;;;;7.20;6.90;;;;;;;32.41;20.45;100046.25;5033939;28;20442;-62
2022/05/22 07:21:38;;;;;;;7.25;6.95;;;;;;;30.97;21.95;100038.53;5033839;28;20029;-63
2022/05/22 07:24:04;;;;;;;7.20;6.90;;;;;;;31.94;21.18;100035.28;5033744;28;20078;-63
2022/05/22 07:26:31;;;;;;;7.15;6.85;;;;;;;31.17;21.69;100031.59;5033361;28;20033;-63
2022/05/22 07:29:01;;;;;;;7.20;6.90;;;;;;;31.86;21.01;100025.97;5033399;28;20023;-63
2022/05/22 07:31:28;;;;;;;7.00;6.70;;;;;;;27.91;25.35;100020.81;5033276;28;20493;-63
2022/05/22 07:33:55;;;;;;;7.00;6.70;;;;;;;28.61;24.60;100033.31;5033817;28;20048;-62
2022/05/22 07:36:21;;;;;;;6.90;6.60;;;;;;;27.85;25.08;100027.47;5033242;28;20055;-63
2022/05/22 07:38:47;;;;;;;7.00;6.70;;;;;;;27.06;26.58;100032.09;5021622;28;20022;-63
2022/05/22 07:41:14;;;;;;;7.00;6.70;;;;;;;26.75;26.81;100032.53;5028894;28;20027;-63
2022/05/22 07:43:40;;;;;;;6.90;6.60;;;;;;;26.00;28.07;100027.75;5033150;28;20029;-66
2022/05/22 07:46:07;;;;;;;6.63;6.32;;;;;;;26.23;27.52;100025.28;5020054;28;20112;-62
2022/05/22 07:48:33;;;;;;;6.95;6.65;;;;;;;27.07;27.07;100030.97;5032958;28;20032;-63
2022/05/22 07:51:00;;;;;;;6.78;6.47;;;;;;;25.24;28.76;100031.16;5019404;28;20508;-63
2022/05/22 07:53:27;;;;;;;7.10;6.80;;;;;;;26.00;27.56;100019.59;5032938;28;20047;-63
2022/05/22 07:55:53;;;;;;;6.90;6.60;;;;;;;27.86;25.24;100026.38;5032800;28;20424;-65
2022/05/22 07:58:21;;;;;;;7.30;7.00;;;;;;;27.80;24.66;100030.28;5033233;28;20018;-63
2022/05/22 08:00:49;;;;;;;6.97;6.68;;;;;;;26.26;27.09;100014.63;5018342;28;20413;-62
2022/05/22 08:03:16;;;;;;;6.90;6.60;;;;;;;25.43;27.84;100025.84;5032878;28;20099;-63
2022/05/22 08:05:42;;;;;;;7.00;6.70;;;;;;;25.76;27.64;100024.19;5028222;28;20114;-63
2022/05/22 08:08:08;;;;;;;6.85;6.55;;;;;;;25.18;27.38;100015.97;5023852;28;20097;-62
2022/05/22 08:10:36;;;;;;;7.07;6.78;;;;;;;26.10;26.51;100018.66;5028489;28;20025;-63
2022/05/22 08:13:04;;;;;;;6.80;6.50;;;;;;;26.43;26.93;100017.69;5032433;28;20502;-62
2022/05/22 08:15:31;;;;;;;6.90;6.60;;;;;;;24.89;29.13;100024.03;5032642;28;20041;-63
2022/05/22 08:17:57;;;;;;;6.78;6.47;;;;;;;24.59;29.14;100025.03;5032430;28;20092;-63
2022/05/22 08:20:23;;;;;;;6.78;6.47;;;;;;;24.67;28.79;100019.00;5032470;28;20431;-63
2022/05/22 08:22:55;;;;;;;6.80;6.50;;;;;;;24.19;28.93;100010.56;5032333;28;20458;-64
2022/05/22 08:25:22;;;;;;;6.97;6.68;;;;;;;25.57;27.53;100011.31;5032464;28;20040;-63
2022/05/22 08:27:48;;;;;;;6.90;6.60;;;;;;;25.53;27.30;99995.84;5032415;28;20033;-63
2022/05/22 08:30:16;;;;;;;7.10;6.80;;;;;;;25.22;28.17;100006.19;5032329;28;20515;-63
2022/05/22 08:32:43;;;;;;;7.30;7.00;;;;;;;25.41;27.87;99990.78;5032439;28;20029;-63
2022/05/22 08:35:13;;;;;;;7.20;6.90;;;;;;;25.75;27.52;99992.69;5018836;28;20524;-62
2022/05/22 08:37:38;;;;;;;7.07;6.78;;;;;;;25.47;27.94;99980.69;5031611;28;20030;-63
2022/05/22 08:40:05;;;;;;;7.50;7.20;;;;;;;25.30;27.99;99997.44;5031450;28;20025;-64
2022/05/22 08:42:46;;;;;;;7.20;6.90;;;;;;;25.25;28.49;99989.31;5031989;28;20036;-63
2022/05/22 08:45:43;;;;;;;7.20;6.90;;;;;;;25.72;28.14;99979.69;5031751;28;20048;-62
2022/05/22 08:48:24;;;;;;;6.90;6.60;;;;;;;25.35;28.10;99972.97;5019080;28;20049;-64
2022/05/22 08:50:56;;;;;;;7.10;6.80;;;;;;;24.46;28.76;99967.63;5047347;28;20709;-63
2022/05/22 08:53:30;;;;;;;7.10;6.80;;;;;;;24.61;29.16;99980.28;5031723;28;20036;-63
2022/05/22 08:59:03;;;;;;;6.90;6.60;;;;;;;25.60;28.69;99956.38;5032332;28;20032;-62
2022/05/22 09:01:43;;;;;;;6.70;6.40;;;;;;;24.53;29.17;99945.59;5020065;28;20018;-63
2022/05/22 09:04:18;;;;;;;7.10;6.80;;;;;;;24.27;30.03;99950.34;5031491;28;20025;-63
2022/05/22 09:07:14;;;;;;;6.70;6.40;;;;;;;23.88;30.50;99951.06;5032241;28;20053;-62
2022/05/22 09:09:41;;;;;;;6.80;6.50;;;;;;;24.82;29.65;99951.09;5037924;28;20029;-63
2022/05/22 09:12:28;;;;;;;6.70;6.40;;;;;;;25.38;28.74;99934.34;5031989;28;20093;-63
2022/05/22 09:15:47;;;;;;;6.68;6.38;;;;;;;25.13;28.66;99931.91;5031971;28;20029;-64
2022/05/22 09:18:22;;;;;;;6.65;6.35;;;;;;;23.75;30.20;99916.44;4981268;28;20193;-64
2022/05/22 09:21:03;;;;;;;6.88;6.57;;;;;;;24.47;29.79;99923.16;5030385;28;20021;-63
2022/05/22 09:23:52;;;;;;;6.80;6.50;;;;;;;24.64;30.19;99936.31;5019124;28;20032;-64
2022/05/22 09:26:26;;;;;;;6.50;6.20;;;;;;;24.16;30.13;99919.75;5031484;28;20474;-63
2022/05/22 09:29:08;;;;;;;6.63;6.32;;;;;;;24.00;30.79;99931.78;5030568;28;20033;-63
2022/05/22 09:31:43;;;;;;;6.82;6.53;;;;;;;23.59;30.81;99931.09;5026815;28;20209;-64
2022/05/22 09:35:08;;;;;;;6.38;6.13;;;;;;;23.90;30.23;99921.81;5031529;28;20025;-63
2022/05/22 09:37:55;;;;;;;6.68;6.38;;;;;;;23.37;30.72;99915.97;5000345;28;20042;-62
2022/05/22 09:40:32;;;;;;;6.90;6.60;;;;;;;22.86;32.30;99909.81;5019147;28;20028;-63
2022/05/22 09:43:16;;;;;;;6.90;6.60;;;;;;;23.67;31.26;99922.44;5021939;28;20029;-65
2022/05/22 09:46:28;;;;;;;6.55;6.25;;;;;;;23.75;31.34;99919.16;5031485;28;20052;-64
2022/05/22 09:48:59;;;;;;;6.57;6.28;;;;;;;23.69;30.64;99912.94;5030531;28;20033;-62
2022/05/22 09:51:38;;;;;;;7.00;6.70;;;;;;;23.70;30.72;99921.88;5030045;28;20056;-63
2022/05/22 09:54:13;;;;;;;6.60;6.30;;;;;;;24.52;30.72;99928.53;5030962;28;20516;-63
2022/05/22 09:56:58;;;;;;;6.47;6.18;;;;;;;24.08;30.35;99927.66;5031042;28;20378;-63
2022/05/22 09:59:35;;;;;;;6.93;6.63;;;;;;;23.86;29.90;99920.72;5025851;28;20139;-63
2022/05/22 10:02:09;;;;;;;6.55;6.25;;;;;;;24.59;29.27;99922.78;5031417;28;20075;-63
2022/05/22 10:05:06;;;;;;;6.53;6.22;;;;;;;24.02;30.42;99924.19;5031492;28;20033;-61
2022/05/22 10:07:43;;;;;;;6.80;6.50;;;;;;;24.30;29.76;99919.97;5031287;28;20033;-63
2022/05/22 10:10:13;;;;;;;6.88;6.57;;;;;;;23.75;30.05;99932.69;5030817;28;20033;-62
2022/05/22 10:13:13;;;;;;;6.60;6.30;;;;;;;24.13;29.96;99922.22;5031156;28;20715;-63
2022/05/22 10:15:47;;;;;;;7.60;7.30;;;;;;;24.28;30.27;99924.84;5021615;28;20100;-63
2022/05/22 10:18:32;;;;;;;6.50;6.20;;;;;;;23.94;30.92;99916.63;5034583;28;20025;-63
2022/05/22 10:21:42;;;;;;;6.60;6.30;;;;;;;23.54;31.79;99922.97;5034486;28;20424;-63
2022/05/22 10:24:29;;;;;;;7.00;6.70;;;;;;;22.54;33.45;99902.72;5014290;28;20037;-62
2022/05/22 10:26:54;;;;;;;6.70;6.40;;;;;;;23.14;32.57;99911.16;5035022;28;20104;-62
2022/05/22 10:29:29;;;;;;;6.50;6.20;;;;;;;22.97;32.03;99903.31;5034760;28;20473;-63
2022/05/22 10:32:02;;;;;;;6.60;6.30;;;;;;;23.11;32.25;99890.84;5035026;28;20087;-63
2022/05/22 10:34:49;;;;;;;6.30;6.05;;;;;;;23.20;31.52;99906.53;5034329;28;20029;-63
2022/05/22 10:37:24;;;;;;;6.93;6.63;;;;;;;23.41;31.86;99900.00;5034447;28;20061;-63
2022/05/22 10:39:49;;;;;;;6.70;6.40;;;;;;;22.67;32.08;99884.34;5034062;28;20033;-63
2022/05/22 10:42:46;;;;;;;6.75;6.45;;;;;;;22.97;31.88;99887.06;5034430;28;20032;-63
2022/05/22 10:45:21;;;;;;;6.70;6.40;;;;;;;22.77;31.70;99854.63;5034225;28;20493;-63
2022/05/22 10:47:47;;;;;;;6.60;6.30;;;;;;;22.51;32.12;99886.25;5034607;28;20434;-63
2022/05/22 10:50:25;;;;;;;6.68;6.38;;;;;;;23.51;30.94;99899.97;5034305;28;20472;-63
2022/05/22 10:52:52;;;;;;;6.90;6.60;;;;;;;22.59;31.53;99893.81;5034135;28;20036;-63
2022/05/22 10:55:31;;;;;;;6.78;6.47;;;;;;;23.12;30.72;99895.16;5034160;28;20021;-64
2022/05/22 10:58:27;;;;;;;6.80;6.50;;;;;;;23.24;30.78;99886.78;5034450;28;20357;-64
2022/05/22 11:01:01;;;;;;;6.78;6.47;;;;;;;22.32;32.42;99886.75;5034065;28;20099;-63
2022/05/22 11:03:30;;;;;;;6.68;6.38;;;;;;;23.38;31.72;99893.25;5017165;28;20036;-64
2022/05/22 11:05:57;;;;;;;6.75;6.45;;;;;;;22.48;32.07;99881.38;5034126;28;20075;-64
2022/05/22 11:08:32;;;;;;;6.82;6.53;;;;;;;22.20;32.64;99883.50;5034126;28;20026;-63
2022/05/22 11:11:14;;;;;;;6.45;6.15;;;;;;;23.19;31.74;99877.84;5032747;28;20034;-64
2022/05/22 11:13:41;;;;;;;6.50;6.20;;;;;;;23.52;31.36;99903.50;5033623;28;20029;-63
2022/05/22 11:16:17;;;;;;;6.70;6.40;;;;;;;23.19;32.00;99877.84;5033681;28;20492;-62
2022/05/22 11:18:43;;;;;;;6.70;6.40;;;;;;;22.88;32.60;99877.91;5033692;28;20029;-63
2022/05/22 11:21:25;;;;;;;6.80;6.50;;;;;;;22.43;32.33;99897.59;5033784;28;20040;-63
2022/05/22 11:24:09;;;;;;;6.70;6.40;;;;;;;23.02;31.47;99894.38;5033535;28;20018;-63
2022/05/22 11:26:38;;;;;;;6.60;6.30;;;;;;;23.15;30.91;99888.41;5032925;28;20030;-63
2022/05/22 11:29:28;;;;;;;6.50;6.20;;;;;;;23.07;31.19;99880.88;5033548;28;20675;-63
2022/05/22 11:32:23;;;;;;;6.68;6.38;;;;;;;23.01;31.47;99885.47;5033381;28;20535;-63
2022/05/22 11:35:24;;;;;;;6.63;6.32;;;;;;;22.74;31.14;99898.41;5019459;28;20026;-63
2022/05/22 11:38:10;;;;;;;6.75;6.45;;;;;;;22.95;30.83;99893.84;5022224;28;20111;-63
2022/05/22 11:40:56;;;;;;;6.70;6.40;;;;;;;22.57;31.22;99885.97;5032079;28;20060;-64
2022/05/22 11:43:47;;;;;;;6.75;6.45;;;;;;;22.57;31.12;99891.38;5031961;28;20025;-64
2022/05/22 11:46:19;;;;;;;6.70;6.40;;;;;;;22.86;30.95;99885.47;5032990;28;20045;-64
2022/05/22 11:49:07;;;;;;;6.70;6.40;;;;;;;22.60;31.06;99876.50;5033374;28;20029;-63